createdAt,value
2019-02-22T00:02:42.781Z,9.80
2019-02-22T00:05:12.326Z,9.80
2019-02-22T00:07:42.190Z,9.80
2019-02-22T00:10:11.768Z,9.70
2019-02-22T00:12:41.326Z,9.70
2019-02-22T00:20:11.286Z,9.60
2019-02-22T00:22:41.112Z,9.60
2019-02-22T00:25:10.719Z,9.50
2019-02-22T00:27:40.257Z,9.50
2019-02-22T00:30:13.649Z,9.50
2019-02-22T00:32:43.230Z,9.50
2019-02-22T00:37:45.889Z,9.50
2019-02-22T00:40:18.745Z,10.10
2019-02-22T00:42:50.242Z,9.40
2019-02-22T00:45:23.016Z,9.40
2019-02-22T00:47:52.553Z,9.40
2019-02-22T00:50:23.593Z,9.40
2019-02-22T00:52:53.434Z,9.30
2019-02-22T00:55:29.060Z,9.40
2019-02-22T01:00:30.320Z,9.30
2019-02-22T01:02:59.868Z,9.30
2019-02-22T01:05:32.537Z,9.30
2019-02-22T01:10:36.257Z,9.30
2019-02-22T01:13:05.829Z,9.30
2019-02-22T01:18:05.647Z,9.30
2019-02-22T01:20:39.365Z,9.20
2019-02-22T01:25:43.725Z,9.20
2019-02-22T01:28:13.278Z,9.20
2019-02-22T01:30:45.886Z,9.10
2019-02-22T01:33:15.527Z,9.20
2019-02-22T01:35:48.157Z,9.20
2019-02-22T01:38:17.965Z,9.10
2019-02-22T01:40:51.640Z,9.20
2019-02-22T01:43:21.267Z,9.20
2019-02-22T01:48:23.417Z,9.20
2019-02-22T01:50:59.794Z,9.20
2019-02-22T01:53:29.353Z,9.20
2019-02-22T01:56:02.043Z,9.20
2019-02-22T01:58:31.858Z,9.20
2019-02-22T02:01:06.689Z,9.20
2019-02-22T02:03:36.226Z,9.10
2019-02-22T02:06:10.226Z,9.20
2019-02-22T02:08:39.749Z,9.10
2019-02-22T02:11:12.677Z,9.10
2019-02-22T02:16:14.227Z,9.10
2019-02-22T02:18:44.069Z,9.10
2019-02-22T02:21:20.790Z,9.10
2019-02-22T02:23:50.361Z,9.10
2019-02-22T02:26:20.357Z,9.10
2019-02-22T02:36:23.718Z,9.10
2019-02-22T02:41:26.935Z,9.10
2019-02-22T02:43:56.506Z,9.00
2019-02-22T02:48:58.388Z,9.00
2019-02-22T02:54:02.787Z,9.00
2019-02-22T02:56:35.375Z,9.00
2019-02-22T03:01:38.282Z,8.90
2019-02-22T03:04:07.862Z,8.90
2019-02-22T03:06:48.025Z,8.90
2019-02-22T03:09:17.883Z,8.80
2019-02-22T03:14:16.364Z,8.80
2019-02-22T03:16:46.210Z,9.10
2019-02-22T03:21:47.484Z,8.80
2019-02-22T03:24:17.352Z,8.80
2019-02-22T03:26:51.513Z,8.80
2019-02-22T03:29:21.155Z,8.70
2019-02-22T03:31:56.204Z,8.70
2019-02-22T03:34:25.764Z,8.60
2019-02-22T03:36:56.438Z,8.60
2019-02-22T03:39:25.980Z,8.60
2019-02-22T03:47:04.186Z,8.50
2019-02-22T03:49:33.778Z,8.50
2019-02-22T03:52:24.069Z,8.50
2019-02-22T03:54:53.973Z,8.50
2019-02-22T03:57:23.519Z,8.50
2019-02-22T03:59:53.077Z,8.50
2019-02-22T04:04:51.820Z,7.40
2019-02-22T04:07:21.525Z,8.40
2019-02-22T04:09:51.339Z,8.40
2019-02-22T04:14:49.837Z,8.40
2019-02-22T04:17:22.476Z,8.30
2019-02-22T04:19:52.023Z,8.40
2019-02-22T04:22:24.467Z,7.10
2019-02-22T04:24:54.309Z,8.30
2019-02-22T04:27:25.681Z,8.30
2019-02-22T04:29:55.245Z,8.30
2019-02-22T04:32:28.797Z,8.40
2019-02-22T04:37:31.808Z,8.40
2019-02-22T04:45:04.109Z,8.40
2019-02-22T04:47:37.751Z,9.20
2019-02-22T05:00:12.328Z,8.40
2019-02-22T05:02:45.086Z,8.80
2019-02-22T05:05:14.926Z,8.40
2019-02-22T05:07:47.274Z,8.80
2019-02-22T05:10:16.913Z,8.40
2019-02-22T05:12:51.270Z,8.40
2019-02-22T05:15:20.851Z,8.40
2019-02-22T05:17:53.553Z,7.80
2019-02-22T05:20:23.485Z,8.40
2019-02-22T05:23:03.946Z,8.40
2019-02-22T05:27:59.656Z,8.50
2019-02-22T05:33:03.108Z,8.40
2019-02-22T05:35:32.966Z,8.50
2019-02-22T05:40:35.473Z,8.50
2019-02-22T05:43:08.513Z,8.50
2019-02-22T05:45:38.702Z,8.50
2019-02-22T05:48:14.323Z,8.50
2019-02-22T05:50:43.920Z,8.50
2019-02-22T05:53:16.653Z,9.10
2019-02-22T05:55:50.502Z,8.50
2019-02-22T05:58:20.055Z,8.40
2019-02-22T06:00:49.596Z,8.40
2019-02-22T06:03:20.496Z,9.40
2019-02-22T06:05:50.065Z,8.40
2019-02-22T06:10:52.083Z,8.40
2019-02-22T06:13:24.688Z,8.40
2019-02-22T06:15:54.267Z,8.40
2019-02-22T06:18:27.264Z,8.40
2019-02-22T06:20:56.810Z,8.40
2019-02-22T06:23:32.633Z,8.40
2019-02-22T06:26:02.756Z,7.60
2019-02-22T06:28:35.434Z,8.40
2019-02-22T06:31:05.022Z,8.40
2019-02-22T06:33:38.114Z,9.30
2019-02-22T06:36:07.702Z,8.40
2019-02-22T06:41:06.677Z,8.40
2019-02-22T06:48:50.786Z,8.50
2019-02-22T06:51:20.630Z,8.50
2019-02-22T06:53:50.224Z,8.40
2019-02-22T06:56:19.960Z,8.40
2019-02-22T07:01:22.007Z,8.50
2019-02-22T07:03:52.788Z,9.50
2019-02-22T07:06:22.715Z,8.60
2019-02-22T07:08:58.429Z,8.60
2019-02-22T07:14:34.314Z,8.60
2019-02-22T07:17:03.913Z,9.10
2019-02-22T07:19:33.482Z,8.50
2019-02-22T07:22:06.320Z,8.50
2019-02-22T07:27:10.914Z,8.50
2019-02-22T07:29:44.462Z,8.50
2019-02-22T07:32:16.498Z,8.50
2019-02-22T07:34:46.090Z,8.50
2019-02-22T07:37:18.484Z,8.50
2019-02-22T07:39:48.301Z,8.60
2019-02-22T07:42:20.903Z,8.60
2019-02-22T07:44:51.997Z,8.60
2019-02-22T07:47:23.096Z,8.60
2019-02-22T07:49:52.918Z,8.70
2019-02-22T07:52:25.594Z,8.60
2019-02-22T07:54:55.152Z,7.90
2019-02-22T07:57:28.841Z,8.60
2019-02-22T08:02:29.847Z,8.60
2019-02-22T08:04:59.643Z,8.60
2019-02-22T08:10:01.355Z,10.20
2019-02-22T08:12:35.839Z,8.50
2019-02-22T08:17:38.664Z,8.60
2019-02-22T08:20:08.563Z,8.60
2019-02-22T08:22:47.098Z,8.70
2019-02-22T08:27:53.471Z,8.70
2019-02-22T08:32:47.445Z,8.70
2019-02-22T08:35:17.529Z,8.80
2019-02-22T08:40:20.046Z,8.80
2019-02-22T08:42:54.514Z,8.80
2019-02-22T08:45:24.118Z,8.90
2019-02-22T08:50:23.341Z,8.90
2019-02-22T08:53:01.683Z,8.90
2019-02-22T08:55:31.790Z,8.90
2019-02-22T09:03:05.566Z,9.00
2019-02-22T09:05:35.146Z,8.90
2019-02-22T09:08:07.788Z,9.10
2019-02-22T09:13:13.906Z,9.00
2019-02-22T09:18:14.614Z,9.90
2019-02-22T09:20:44.205Z,9.30
2019-02-22T09:23:16.581Z,9.30
2019-02-22T09:25:46.145Z,9.40
2019-02-22T09:28:18.794Z,9.50
2019-02-22T09:30:48.636Z,9.50
2019-02-22T09:33:25.475Z,9.50
2019-02-22T09:35:55.061Z,9.50
2019-02-22T09:43:28.701Z,9.70
2019-02-22T09:48:31.871Z,9.70
2019-02-22T09:51:03.577Z,9.90
2019-02-22T09:53:33.166Z,9.50
2019-02-22T09:58:36.228Z,10.20
2019-02-22T10:01:05.747Z,9.80
2019-02-22T10:03:38.186Z,9.80
2019-02-22T10:08:39.756Z,9.90
2019-02-22T10:13:42.146Z,10.00
2019-02-22T10:16:12.002Z,10.10
2019-02-22T10:18:47.051Z,10.20
2019-02-22T10:21:16.579Z,10.00
2019-02-22T10:23:52.724Z,10.10
2019-02-22T10:26:22.294Z,10.00
2019-02-22T10:31:24.846Z,10.20
2019-02-22T10:33:58.390Z,10.30
2019-02-22T10:36:27.969Z,10.40
2019-02-22T10:38:59.086Z,10.40
2019-02-22T10:41:28.657Z,10.50
2019-02-22T10:44:04.454Z,10.70
2019-02-22T10:46:34.029Z,10.70
2019-02-22T10:51:34.395Z,11.70
2019-02-22T10:56:39.287Z,11.30
2019-02-22T10:59:13.344Z,11.20
2019-02-22T11:01:42.930Z,11.00
2019-02-22T11:04:15.678Z,11.40
2019-02-22T11:06:45.263Z,11.10
2019-02-22T11:09:18.805Z,11.00
2019-02-22T11:14:28.709Z,11.10
2019-02-22T11:21:54.098Z,11.50
2019-02-22T11:24:26.709Z,11.60
2019-02-22T11:26:56.273Z,11.70
2019-02-22T11:31:57.627Z,12.00
2019-02-22T11:36:59.149Z,11.40
2019-02-22T11:47:06.693Z,11.90
2019-02-22T11:49:38.389Z,11.70
2019-02-22T11:52:08.229Z,11.90
2019-02-22T11:57:13.135Z,12.10
2019-02-22T11:59:45.918Z,12.00
2019-02-22T12:04:49.867Z,12.20
2019-02-22T12:07:19.994Z,12.20
2019-02-22T12:09:51.067Z,13.00
2019-02-22T12:12:20.641Z,12.30
2019-02-22T12:14:55.566Z,12.60
2019-02-22T12:17:25.147Z,12.80
2019-02-22T12:19:57.790Z,13.00
2019-02-22T12:22:27.794Z,12.70
2019-02-22T12:25:05.593Z,12.50
2019-02-22T12:27:34.894Z,12.90
2019-02-22T12:30:09.193Z,12.70
2019-02-22T12:32:39.656Z,12.60
2019-02-22T12:37:39.259Z,12.20
2019-02-22T12:40:10.406Z,12.70
2019-02-22T12:45:15.979Z,12.00
2019-02-22T12:47:45.604Z,12.10
2019-02-22T12:50:15.270Z,11.90
2019-02-22T12:52:45.135Z,12.00
2019-02-22T12:55:17.746Z,12.10
2019-02-22T13:02:48.999Z,12.20
2019-02-22T13:05:25.287Z,12.10
2019-02-22T13:07:55.113Z,12.10
2019-02-22T13:12:54.051Z,12.30
2019-02-22T13:15:30.175Z,12.60
2019-02-22T13:20:31.948Z,12.60
2019-02-22T13:23:03.713Z,12.40
2019-02-22T13:25:33.293Z,13.00
2019-02-22T13:30:37.152Z,12.00
2019-02-22T13:33:06.714Z,12.50
2019-02-22T13:38:09.774Z,12.20
2019-02-22T13:40:42.104Z,12.30
2019-02-22T13:43:11.679Z,12.60
2019-02-22T13:45:45.417Z,12.60
2019-02-22T13:48:15.021Z,12.90
2019-02-22T13:50:48.469Z,13.30
2019-02-22T13:53:18.363Z,13.60
2019-02-22T13:55:50.900Z,13.60
2019-02-22T13:58:20.441Z,13.30
2019-02-22T14:00:56.086Z,13.50
2019-02-22T14:03:25.649Z,13.30
2019-02-22T14:05:57.776Z,13.20
2019-02-22T14:08:27.371Z,13.20
2019-02-22T14:11:03.125Z,13.30
2019-02-22T14:13:32.813Z,13.00
2019-02-22T14:16:06.099Z,13.10
2019-02-22T14:18:36.222Z,12.90
2019-02-22T14:21:12.290Z,12.90
2019-02-22T14:23:41.864Z,12.90
2019-02-22T14:28:44.466Z,12.90
2019-02-22T14:33:46.360Z,13.20
2019-02-22T14:36:21.795Z,12.20
2019-02-22T14:38:51.328Z,12.80
2019-02-22T14:41:24.349Z,12.80
2019-02-22T14:46:26.305Z,12.40
2019-02-22T14:48:55.910Z,12.50
2019-02-22T14:51:28.518Z,12.50
2019-02-22T14:53:58.366Z,12.20
2019-02-22T14:56:31.051Z,12.20
2019-02-22T14:59:02.503Z,12.00
2019-02-22T15:01:35.620Z,12.00
2019-02-22T15:04:06.155Z,12.00
2019-02-22T15:06:35.923Z,11.40
2019-02-22T15:09:06.442Z,12.30
2019-02-22T15:11:39.530Z,12.30
2019-02-22T15:14:09.074Z,12.30
2019-02-22T15:16:59.905Z,12.30
2019-02-22T15:19:29.665Z,12.20
2019-02-22T15:22:01.039Z,12.10
2019-02-22T15:31:57.499Z,12.10
2019-02-22T15:34:27.335Z,12.10
2019-02-22T15:36:56.914Z,12.40
2019-02-22T15:39:27.374Z,12.10
2019-02-22T15:41:58.945Z,11.90
2019-02-22T15:44:28.549Z,11.90
2019-02-22T15:47:11.122Z,11.90
2019-02-22T15:49:31.325Z,13.10
2019-02-22T15:52:01.027Z,11.80
2019-02-22T15:57:08.988Z,11.70
2019-02-22T15:59:42.222Z,11.60
2019-02-22T16:02:12.354Z,11.60
2019-02-22T16:05:08.456Z,11.60
2019-02-22T16:07:44.676Z,11.50
2019-02-22T16:10:19.644Z,11.50
2019-02-22T16:12:49.511Z,11.50
2019-02-22T16:15:24.273Z,11.50
2019-02-22T16:17:54.011Z,11.40
2019-02-22T16:20:26.088Z,11.30
2019-02-22T16:22:56.925Z,11.30
2019-02-22T16:25:26.868Z,11.40
2019-02-22T16:27:56.469Z,11.30
2019-02-22T16:30:31.709Z,11.30
2019-02-22T16:40:30.648Z,11.50
2019-02-22T16:45:35.083Z,11.20
2019-02-22T16:48:04.679Z,11.10
2019-02-22T16:50:37.790Z,11.20
2019-02-22T16:53:07.567Z,11.20
2019-02-22T16:55:39.932Z,10.50
2019-02-22T16:58:10.077Z,11.00
2019-02-22T17:00:42.850Z,10.90
2019-02-22T17:03:12.561Z,10.80
2019-02-22T17:05:45.488Z,10.80
2019-02-22T17:08:15.057Z,10.60
2019-02-22T17:10:49.240Z,10.30
2019-02-22T17:13:19.109Z,10.40
2019-02-22T17:15:51.468Z,10.30
2019-02-22T17:18:21.095Z,10.50
2019-02-22T17:25:56.372Z,9.90
2019-02-22T17:28:26.317Z,9.80
2019-02-22T17:31:02.233Z,9.70
2019-02-22T17:33:34.329Z,9.70
2019-02-22T17:43:37.073Z,9.90
2019-02-22T17:46:09.472Z,9.40
2019-02-22T17:48:39.370Z,9.40
2019-02-22T17:53:45.367Z,9.20
2019-02-22T17:56:14.988Z,9.10
2019-02-22T17:58:44.619Z,9.00
2019-02-22T18:01:19.510Z,8.90
2019-02-22T18:04:02.463Z,9.00
2019-02-22T18:06:32.310Z,8.90
2019-02-22T18:09:02.068Z,8.90
2019-02-22T18:11:31.726Z,9.00
2019-02-22T18:19:01.440Z,8.90
2019-02-22T18:24:01.519Z,8.80
2019-02-22T18:29:06.020Z,8.80
2019-02-22T18:31:37.265Z,8.70
2019-02-22T18:36:36.106Z,8.60
2019-02-22T18:39:06.627Z,8.50
2019-02-22T18:41:39.280Z,8.40
2019-02-22T18:44:08.842Z,8.50
2019-02-22T18:46:41.615Z,8.40
2019-02-22T18:49:11.452Z,8.50
2019-02-22T18:51:45.962Z,8.50
2019-02-22T18:54:15.616Z,8.50
2019-02-22T18:56:48.491Z,8.40
2019-02-22T18:59:18.087Z,8.40
2019-02-22T19:01:49.028Z,8.40
2019-02-22T19:04:18.860Z,8.30
2019-02-22T19:06:52.687Z,8.30
2019-02-22T19:09:22.285Z,9.00
2019-02-22T19:11:55.665Z,8.90
2019-02-22T19:19:28.145Z,8.10
2019-02-22T19:22:01.875Z,8.10
2019-02-22T19:25:32.809Z,8.10
2019-02-22T19:28:05.592Z,8.20
2019-02-22T19:30:35.178Z,8.30
2019-02-22T19:35:37.043Z,8.30
2019-02-22T19:38:12.701Z,8.30
2019-02-22T19:43:15.999Z,8.40
2019-02-22T19:45:45.557Z,8.40
2019-02-22T19:50:48.107Z,8.40
2019-02-22T19:53:21.580Z,8.30
2019-02-22T19:55:51.749Z,8.20
2019-02-22T19:58:25.112Z,8.10
2019-02-22T20:00:54.773Z,8.00
2019-02-22T20:03:24.715Z,8.60
2019-02-22T20:05:54.354Z,7.80
2019-02-22T20:08:30.074Z,7.70
2019-02-22T20:13:31.610Z,7.50
2019-02-22T20:16:01.215Z,7.40
2019-02-22T20:18:33.570Z,7.30
2019-02-22T20:21:03.577Z,7.20
2019-02-22T20:23:36.029Z,8.00
2019-02-22T20:26:05.887Z,7.10
2019-02-22T20:28:42.876Z,7.20
2019-02-22T20:31:19.832Z,7.00
2019-02-22T20:33:44.373Z,6.90
2019-02-22T20:36:15.779Z,6.90
2019-02-22T20:38:45.334Z,6.90
2019-02-22T20:41:21.583Z,6.80
2019-02-22T20:46:26.149Z,6.80
2019-02-22T20:49:00.884Z,6.70
2019-02-22T20:54:06.058Z,6.70
2019-02-22T20:56:35.634Z,7.70
2019-02-22T20:59:05.203Z,7.00
2019-02-22T21:01:35.171Z,6.80
2019-02-22T21:04:04.731Z,6.80
2019-02-22T21:06:34.306Z,7.40
2019-02-22T21:09:04.982Z,7.00
2019-02-22T21:11:39.121Z,7.10
2019-02-22T21:14:08.728Z,7.10
2019-02-22T21:16:43.225Z,7.10
2019-02-22T21:21:44.937Z,7.00
2019-02-22T21:24:14.549Z,7.00
2019-02-22T21:26:47.409Z,7.00
2019-02-22T21:31:47.833Z,6.90
2019-02-22T21:34:17.697Z,6.80
2019-02-22T21:36:53.054Z,6.70
2019-02-22T21:39:25.213Z,6.60
2019-02-22T21:46:56.640Z,6.50
2019-02-22T21:54:28.726Z,6.40
2019-02-22T21:57:04.249Z,6.40
2019-02-22T21:59:34.133Z,6.30
2019-02-22T22:02:06.765Z,6.30
2019-02-22T22:07:20.937Z,6.30
2019-02-22T22:09:50.653Z,6.20
2019-02-22T22:12:20.490Z,6.20
2019-02-22T22:17:20.326Z,6.20
2019-02-22T22:19:50.253Z,6.30
2019-02-22T22:22:19.850Z,5.50
2019-02-22T22:24:49.456Z,6.30
2019-02-22T22:29:49.251Z,6.20
2019-02-22T22:32:29.354Z,6.20
2019-02-22T22:37:28.321Z,6.10
2019-02-22T22:42:27.173Z,5.10
2019-02-22T22:44:57.252Z,6.10
2019-02-22T22:52:35.789Z,6.00
2019-02-22T22:55:05.452Z,6.00
2019-02-22T22:57:39.050Z,6.00
2019-02-22T23:00:37.747Z,6.00
2019-02-22T23:03:07.601Z,5.90
2019-02-22T23:05:40.266Z,6.00
2019-02-22T23:08:10.003Z,6.00
2019-02-22T23:15:45.056Z,5.90
2019-02-22T23:18:14.878Z,5.80
2019-02-22T23:25:51.436Z,5.60
2019-02-22T23:28:21.042Z,5.60
2019-02-22T23:30:56.593Z,5.50
2019-02-22T23:36:00.199Z,5.50
2019-02-22T23:38:29.450Z,5.40
2019-02-22T23:43:27.905Z,5.40
2019-02-22T23:45:57.754Z,5.40
2019-02-22T23:48:27.666Z,5.50
2019-02-22T23:50:57.211Z,5.50
2019-02-22T23:55:55.737Z,5.60
2019-02-22T23:58:25.314Z,5.60
